Time;durP1;ratioP1;P1;durP2;ratioP2;P2;SDS_P1;SDS_P2;PMS_P1;PMS_P2;Temp;Humidity;BMP_temperature;BMP_pressure;BME280_temperature;BME280_humidity;BME280_pressure;Samples;Min_cycle;Max_cycle;Signal;HPM_P1;HPM_P2
2021/04/21 00:00:31;;;;;;;1.30;1.20;;;5.90;98.00;;;;;;5072161;28;20987;-74
2021/04/21 00:02:58;;;;;;;1.57;1.53;;;6.00;98.00;;;;;;5069638;28;20539;-74
2021/04/21 00:05:26;;;;;;;2.23;1.50;;;6.00;98.00;;;;;;5072115;28;20810;-74
2021/04/21 00:07:54;;;;;;;1.60;1.30;;;5.90;98.00;;;;;;5069341;28;20464;-74
2021/04/21 00:10:23;;;;;;;1.30;1.20;;;6.00;98.00;;;;;;5072015;28;20461;-74
2021/04/21 00:12:51;;;;;;;2.27;1.90;;;5.90;98.00;;;;;;5069131;28;20449;-74
2021/04/21 00:15:22;;;;;;;1.43;1.37;;;5.90;98.00;;;;;;5071934;28;20457;-74
2021/04/21 00:17:54;;;;;;;2.10;1.63;;;6.00;98.00;;;;;;5068997;28;20528;-74
2021/04/21 00:20:23;;;;;;;1.93;1.83;;;6.10;98.00;;;;;;5071726;28;20465;-74
2021/04/21 00:22:53;;;;;;;1.20;1.00;;;6.00;98.00;;;;;;5068665;28;20589;-74
2021/04/21 00:25:22;;;;;;;2.30;2.10;;;5.80;98.00;;;;;;5071641;28;20463;-74
2021/04/21 00:27:51;;;;;;;2.50;1.83;;;5.60;98.00;;;;;;5068888;28;20496;-74
2021/04/21 00:30:21;;;;;;;3.60;1.40;;;5.60;98.00;;;;;;5071650;28;20948;-74
2021/04/21 00:32:51;;;;;;;2.60;1.60;;;5.70;98.00;;;;;;5068872;28;20463;-74
2021/04/21 00:35:23;;;;;;;2.60;2.03;;;5.80;98.00;;;;;;5071614;28;20457;-74
2021/04/21 00:40:46;;;;;;;1.83;1.50;;;5.70;98.00;;;;;;5071218;28;20471;-74
2021/04/21 00:43:26;;;;;;;4.90;1.37;;;5.60;98.00;;;;;;5068646;28;20509;-74
2021/04/21 00:46:01;;;;;;;2.43;1.60;;;5.60;98.00;;;;;;5071420;28;20463;-74
2021/04/21 00:48:36;;;;;;;1.70;1.37;;;5.50;98.00;;;;;;5068187;28;20455;-74
2021/04/21 00:51:06;;;;;;;1.30;1.10;;;5.50;98.00;;;;;;5071572;28;20499;-74
2021/04/21 00:53:39;;;;;;;1.60;1.10;;;5.30;98.00;;;;;;5068785;28;20546;-73
2021/04/21 00:56:12;;;;;;;2.03;1.67;;;5.40;98.00;;;;;;5071402;28;20463;-73
2021/04/21 00:58:48;;;;;;;1.97;1.50;;;5.50;98.00;;;;;;5068510;28;20460;-73
2021/04/21 01:01:16;;;;;;;1.20;1.10;;;5.40;98.00;;;;;;5071122;28;20454;-73
2021/04/21 01:03:44;;;;;;;1.30;1.17;;;5.30;98.00;;;;;;5068589;28;20511;-74
2021/04/21 01:06:14;;;;;;;2.03;1.93;;;5.30;98.00;;;;;;5071175;28;20858;-74
2021/04/21 01:08:45;;;;;;;1.93;1.53;;;5.40;98.00;;;;;;5068422;28;20844;-74
2021/04/21 01:11:22;;;;;;;1.70;1.60;;;5.50;98.00;;;;;;5071130;28;20499;-73
2021/04/21 01:13:52;;;;;;;1.53;1.50;;;5.60;98.00;;;;;;5068575;28;20862;-73
2021/04/21 01:16:24;;;;;;;1.40;1.30;;;5.70;98.00;;;;;;5070972;28;20453;-74
2021/04/21 01:18:52;;;;;;;1.50;1.37;;;5.70;98.00;;;;;;5068193;28;20480;-73
2021/04/21 01:21:22;;;;;;;1.20;1.00;;;5.50;98.00;;;;;;5070994;28;20455;-74
2021/04/21 01:24:08;;;;;;;2.00;1.90;;;5.30;98.00;;;;;;5068167;28;20490;-74
2021/04/21 01:26:47;;;;;;;1.40;1.30;;;5.20;98.00;;;;;;5070891;28;20470;-74
2021/04/21 01:29:18;;;;;;;2.77;2.53;;;5.10;98.00;;;;;;5068114;28;20476;-74
2021/04/21 01:31:48;;;;;;;2.77;1.57;;;5.20;98.00;;;;;;5070935;28;20455;-74
2021/04/21 01:34:20;;;;;;;1.40;1.30;;;5.10;98.00;;;;;;5068271;28;20507;-74
2021/04/21 01:36:48;;;;;;;1.30;1.30;;;5.00;98.00;;;;;;5070977;28;20457;-74
2021/04/21 01:39:18;;;;;;;1.77;1.63;;;5.10;98.00;;;;;;5068149;28;20463;-74
2021/04/21 01:41:51;;;;;;;1.20;1.10;;;5.20;98.00;;;;;;5070113;28;20991;-74
2021/04/21 01:44:22;;;;;;;1.20;1.00;;;5.30;98.00;;;;;;5066889;28;20509;-74
2021/04/21 01:46:57;;;;;;;2.07;1.53;;;5.10;98.00;;;;;;5070359;28;20452;-74
2021/04/21 01:49:48;;;;;;;1.30;1.10;;;5.10;98.00;;;;;;5068130;28;20464;-74
2021/04/21 01:52:35;;;;;;;1.60;1.30;;;5.30;98.00;;;;;;5067951;28;20455;-74
2021/04/21 01:55:09;;;;;;;2.80;1.53;;;5.30;98.00;;;;;;5070714;28;21079;-74
2021/04/21 01:57:45;;;;;;;1.30;1.20;;;5.20;98.00;;;;;;5067487;28;20467;-74
2021/04/21 02:00:21;;;;;;;1.50;1.47;;;5.10;98.00;;;;;;5070440;28;20463;-74
2021/04/21 02:03:07;;;;;;;2.23;1.73;;;5.30;98.00;;;;;;5071111;28;20957;-74
2021/04/21 02:06:04;;;;;;;1.73;1.70;;;5.30;98.00;;;;;;5074110;28;20459;-74
2021/04/21 02:08:40;;;;;;;1.20;1.00;;;5.10;98.00;;;;;;5070817;28;20459;-74
2021/04/21 02:11:15;;;;;;;1.30;1.10;;;4.90;98.00;;;;;;5074084;28;20563;-74
2021/04/21 02:14:01;;;;;;;1.70;1.20;;;4.90;98.00;;;;;;5071193;28;20453;-74
2021/04/21 02:16:36;;;;;;;1.30;1.10;;;5.00;98.00;;;;;;5074039;28;20493;-74
2021/04/21 02:19:16;;;;;;;4.10;2.30;;;5.00;98.00;;;;;;5070473;28;20969;-74
2021/04/21 02:21:50;;;;;;;2.73;2.53;;;5.00;98.00;;;;;;5074217;28;20972;-74
2021/04/21 02:24:30;;;;;;;1.40;1.27;;;4.80;98.00;;;;;;5069828;28;20838;-74
2021/04/21 02:27:08;;;;;;;1.20;1.10;;;4.60;98.00;;;;;;5074048;28;20451;-74
2021/04/21 02:29:40;;;;;;;1.20;1.00;;;4.60;98.00;;;;;;5073373;28;20463;-74
2021/04/21 02:32:15;;;;;;;1.20;1.10;;;4.70;98.00;;;;;;5071076;28;20451;-75
2021/04/21 02:34:54;;;;;;;1.20;1.10;;;4.60;98.00;;;;;;5073764;28;20944;-74
2021/04/21 02:37:28;;;;;;;1.30;1.13;;;4.50;98.00;;;;;;5069358;28;20469;-74
2021/04/21 02:40:07;;;;;;;3.33;1.77;;;4.60;98.00;;;;;;5073585;28;20450;-74
2021/04/21 02:42:40;;;;;;;2.00;1.93;;;4.60;98.00;;;;;;5070885;28;20512;-74
2021/04/21 02:45:19;;;;;;;1.67;1.60;;;4.60;98.00;;;;;;5073286;28;20462;-75
2021/04/21 02:47:53;;;;;;;1.30;1.10;;;4.40;98.00;;;;;;5070834;28;20456;-74
2021/04/21 02:50:27;;;;;;;1.20;1.00;;;4.30;98.00;;;;;;5073388;28;20453;-74
2021/04/21 02:53:06;;;;;;;1.87;1.30;;;4.20;98.00;;;;;;5070593;28;20489;-75
2021/04/21 02:55:45;;;;;;;2.17;1.30;;;4.30;98.00;;;;;;5073263;28;20953;-74
2021/04/21 02:58:15;;;;;;;2.60;2.00;;;4.20;98.00;;;;;;5070463;28;20485;-74
2021/04/21 03:00:47;;;;;;;2.93;1.60;;;4.10;98.00;;;;;;5072901;28;20465;-74
2021/04/21 03:03:24;;;;;;;1.50;1.30;;;4.20;98.00;;;;;;5070531;28;20489;-74
2021/04/21 03:05:57;;;;;;;1.47;1.20;;;4.30;98.00;;;;;;5072362;28;20462;-75
2021/04/21 03:08:29;;;;;;;2.03;1.20;;;4.30;98.00;;;;;;5070750;28;20498;-74
2021/04/21 03:11:11;;;;;;;9.23;2.23;;;4.40;98.00;;;;;;5073168;28;20462;-74
2021/04/21 03:13:46;;;;;;;3.10;1.53;;;4.20;98.00;;;;;;5070273;28;20454;-74
2021/04/21 03:16:16;;;;;;;1.70;1.47;;;4.10;98.00;;;;;;5055917;28;20472;-74
2021/04/21 03:18:46;;;;;;;3.00;1.47;;;4.30;98.00;;;;;;5070218;28;20461;-74
2021/04/21 03:21:17;;;;;;;2.70;1.90;;;4.30;98.00;;;;;;5072952;28;20871;-74
2021/04/21 03:23:46;;;;;;;1.40;1.30;;;4.30;98.00;;;;;;5070155;28;21170;-74
2021/04/21 03:26:13;;;;;;;2.07;1.20;;;4.30;98.00;;;;;;5072768;28;20861;-74
2021/04/21 03:28:42;;;;;;;2.17;1.33;;;4.30;98.00;;;;;;5070178;28;20549;-75
2021/04/21 03:31:10;;;;;;;1.60;1.50;;;4.10;98.00;;;;;;5072531;28;20989;-74
2021/04/21 03:33:44;;;;;;;1.20;1.10;;;4.10;98.00;;;;;;5069897;28;20462;-75
2021/04/21 03:36:14;;;;;;;1.60;1.40;;;3.90;98.00;;;;;;5072383;28;20496;-74
2021/04/21 03:38:42;;;;;;;1.30;1.20;;;3.90;98.00;;;;;;5069618;28;20517;-74
2021/04/21 03:41:09;;;;;;;1.60;1.37;;;4.00;98.00;;;;;;5072352;28;20479;-75
2021/04/21 03:43:36;;;;;;;1.70;1.50;;;4.20;98.00;;;;;;5069497;28;20477;-75
2021/04/21 03:46:04;;;;;;;1.97;1.90;;;4.30;98.00;;;;;;5054483;28;20482;-74
2021/04/21 03:48:39;;;;;;;2.20;1.53;;;4.30;98.00;;;;;;5068276;28;20459;-74
2021/04/21 03:51:08;;;;;;;1.87;1.47;;;4.40;98.00;;;;;;5072219;28;20452;-74
2021/04/21 03:53:38;;;;;;;1.20;1.00;;;4.30;98.00;;;;;;5069341;28;20499;-74
2021/04/21 03:56:06;;;;;;;2.37;1.90;;;4.00;98.00;;;;;;5072227;28;20449;-74
2021/04/21 03:58:33;;;;;;;2.03;1.60;;;3.90;98.00;;;;;;5069204;28;20462;-74
2021/04/21 04:01:05;;;;;;;1.40;1.23;;;4.00;98.00;;;;;;5072209;28;20553;-74
2021/04/21 04:03:32;;;;;;;1.20;1.00;;;4.10;98.00;;;;;;5069155;28;20584;-74
2021/04/21 04:06:07;;;;;;;2.50;2.27;;;4.10;98.00;;;;;;5070924;28;20901;-74
2021/04/21 04:08:44;;;;;;;1.87;1.30;;;4.10;98.00;;;;;;5069416;28;20462;-74
2021/04/21 04:11:14;;;;;;;1.20;1.10;;;4.20;98.00;;;;;;5071897;28;20461;-75
2021/04/21 04:13:43;;;;;;;1.27;1.03;;;4.00;98.00;;;;;;5069112;28;20454;-74
2021/04/21 04:16:12;;;;;;;2.07;1.40;;;3.80;98.00;;;;;;5071785;28;20450;-74
2021/04/21 04:18:41;;;;;;;1.20;1.00;;;3.70;98.00;;;;;;5069118;28;20544;-74
2021/04/21 04:21:10;;;;;;;1.40;1.33;;;3.60;98.00;;;;;;5071592;28;20453;-75
2021/04/21 04:23:40;;;;;;;1.30;1.30;;;3.50;98.00;;;;;;5068703;28;20803;-74
2021/04/21 04:26:09;;;;;;;1.30;1.20;;;3.70;98.00;;;;;;5071593;28;20966;-74
2021/04/21 04:28:36;;;;;;;3.23;1.93;;;3.70;98.00;;;;;;5068968;28;21022;-75
2021/04/21 04:31:04;;;;;;;1.20;1.10;;;3.80;98.00;;;;;;5071409;28;20534;-75
2021/04/21 04:33:31;;;;;;;2.17;1.50;;;3.70;98.00;;;;;;5068893;28;20481;-75
2021/04/21 04:35:59;;;;;;;1.50;1.40;;;3.50;98.00;;;;;;5071413;28;20510;-75
2021/04/21 04:38:26;;;;;;;1.20;1.00;;;3.60;98.00;;;;;;5068823;28;20459;-74
2021/04/21 04:40:54;;;;;;;1.50;1.37;;;3.70;98.00;;;;;;5071409;28;20459;-74
2021/04/21 04:43:23;;;;;;;1.57;1.33;;;3.90;98.00;;;;;;5068731;28;20487;-74
2021/04/21 04:45:56;;;;;;;1.20;0.90;;;4.00;98.00;;;;;;5071271;28;20537;-74
2021/04/21 04:48:30;;;;;;;2.03;1.83;;;4.00;98.00;;;;;;5068708;28;20870;-74
2021/04/21 04:51:01;;;;;;;1.20;1.00;;;4.00;98.00;;;;;;5070915;28;20518;-74
2021/04/21 04:53:29;;;;;;;1.20;1.10;;;3.90;98.00;;;;;;5068998;28;20956;-74
2021/04/21 04:55:59;;;;;;;1.30;1.20;;;3.80;98.00;;;;;;5071497;28;20800;-75
2021/04/21 04:58:28;;;;;;;2.17;1.60;;;3.90;98.00;;;;;;5068946;28;20457;-74
2021/04/21 05:01:00;;;;;;;1.20;1.10;;;3.90;98.00;;;;;;5071470;28;21036;-74
2021/04/21 05:03:28;;;;;;;1.33;1.30;;;4.00;98.00;;;;;;5068859;28;20899;-74
2021/04/21 05:05:56;;;;;;;1.93;1.73;;;4.00;98.00;;;;;;5071179;28;20799;-74
2021/04/21 05:08:28;;;;;;;2.17;1.80;;;4.10;98.00;;;;;;5068818;28;20470;-74
2021/04/21 05:11:01;;;;;;;1.30;1.30;;;4.20;98.00;;;;;;5071302;28;20455;-74
2021/04/21 05:13:30;;;;;;;1.30;1.17;;;4.20;98.00;;;;;;5067689;28;20456;-74
2021/04/21 05:16:27;;;;;;;2.03;1.60;;;4.30;98.00;;;;;;5071188;28;20454;-74
2021/04/21 05:19:38;;;;;;;5.37;1.77;;;4.30;98.00;;;;;;5068593;28;20462;-74
2021/04/21 05:22:48;;;;;;;1.20;1.20;;;4.30;98.00;;;;;;5071083;28;20476;-74
2021/04/21 05:26:08;;;;;;;1.50;1.40;;;4.40;98.00;;;;;;4989065;28;20484;-74
2021/04/21 05:29:07;;;;;;;1.53;1.43;;;4.40;98.00;;;;;;4986601;28;20461;-74
2021/04/21 05:32:17;;;;;;;1.30;1.20;;;4.40;98.00;;;;;;5071019;28;20831;-74
2021/04/21 05:35:26;;;;;;;1.30;1.30;;;4.20;98.00;;;;;;5069928;28;20455;-74
2021/04/21 05:38:41;;;;;;;2.53;1.80;;;4.10;98.00;;;;;;5071463;28;20873;-74
2021/04/21 05:41:48;;;;;;;1.60;1.37;;;4.20;98.00;;;;;;5074759;28;20459;-74
2021/04/21 05:44:59;;;;;;;1.30;1.20;;;4.30;98.00;;;;;;5071857;28;20488;-74
2021/04/21 05:48:18;;;;;;;1.30;1.00;;;4.60;98.00;;;;;;5043355;28;20457;-73
2021/04/21 05:51:29;;;;;;;1.20;0.97;;;4.70;98.00;;;;;;5049191;28;20508;-74
2021/04/21 05:54:34;;;;;;;2.43;2.30;;;4.90;98.00;;;;;;5009849;28;20562;-74
2021/04/21 05:57:29;;;;;;;1.83;1.73;;;4.90;98.00;;;;;;5074430;28;20461;-74
2021/04/21 06:00:50;;;;;;;3.70;2.50;;;4.90;98.00;;;;;;5074465;28;20517;-74
2021/04/21 06:03:20;;;;;;;1.50;1.33;;;5.00;98.00;;;;;;5071749;28;20450;-74
2021/04/21 06:05:46;;;;;;;1.30;1.23;;;5.10;98.00;;;;;;5074726;28;20792;-74
2021/04/21 06:08:13;;;;;;;1.47;1.33;;;5.30;98.00;;;;;;5071906;28;20501;-74
2021/04/21 06:10:41;;;;;;;1.80;1.23;;;5.50;98.00;;;;;;5074255;28;20450;-74
2021/04/21 06:13:11;;;;;;;1.60;1.17;;;5.60;98.00;;;;;;5070592;28;20457;-73
2021/04/21 06:15:40;;;;;;;2.60;1.87;;;5.70;98.00;;;;;;5074284;28;20453;-72
2021/04/21 06:18:08;;;;;;;2.20;2.00;;;5.80;98.00;;;;;;5070221;28;20466;-73
2021/04/21 06:20:38;;;;;;;1.43;1.20;;;5.90;98.00;;;;;;5074140;28;20485;-72
2021/04/21 06:23:07;;;;;;;2.40;1.90;;;6.00;98.00;;;;;;5071252;28;20459;-72
2021/04/21 06:25:35;;;;;;;3.17;1.80;;;5.90;98.00;;;;;;5073831;28;20506;-72
2021/04/21 06:28:11;;;;;;;1.47;1.23;;;5.90;98.00;;;;;;5071604;28;20461;-72
2021/04/21 06:30:38;;;;;;;3.10;1.97;;;6.00;98.00;;;;;;5073933;28;20456;-72
2021/04/21 06:33:06;;;;;;;1.73;1.50;;;6.10;98.00;;;;;;5071212;28;20452;-72
2021/04/21 06:35:33;;;;;;;3.00;2.13;;;6.30;98.00;;;;;;5073637;28;20448;-71
2021/04/21 06:38:01;;;;;;;1.80;1.40;;;6.40;98.00;;;;;;5071122;28;20514;-71
2021/04/21 06:40:30;;;;;;;1.37;1.30;;;6.50;98.00;;;;;;5073575;28;20468;-72
2021/04/21 06:42:58;;;;;;;1.57;1.53;;;6.60;98.00;;;;;;5069901;28;20458;-72
2021/04/21 06:45:26;;;;;;;2.53;1.60;;;6.80;98.00;;;;;;5073508;28;20488;-72
2021/04/21 06:47:53;;;;;;;2.87;1.70;;;6.90;98.00;;;;;;5070813;28;20560;-71
2021/04/21 06:50:26;;;;;;;1.40;1.37;;;7.00;98.00;;;;;;5073556;28;20469;-71
2021/04/21 06:52:57;;;;;;;2.63;2.10;;;7.10;98.00;;;;;;5070711;28;21021;-71
2021/04/21 06:55:25;;;;;;;2.00;1.93;;;7.20;98.00;;;;;;5073341;28;20493;-71
2021/04/21 06:57:52;;;;;;;1.20;1.20;;;7.30;98.00;;;;;;5069617;28;20872;-72
2021/04/21 07:00:20;;;;;;;1.90;1.67;;;7.50;98.00;;;;;;5073208;28;20462;-72
2021/04/21 07:02:50;;;;;;;2.13;1.40;;;7.60;98.00;;;;;;5070518;28;20449;-72
2021/04/21 07:05:32;;;;;;;2.77;2.47;;;7.70;98.00;;;;;;5073189;28;20485;-71
2021/04/21 07:08:07;;;;;;;1.50;1.37;;;7.90;98.00;;;;;;5070447;28;20492;-72
2021/04/21 07:10:37;;;;;;;2.10;1.93;;;8.10;98.00;;;;;;5073280;28;20459;-72
2021/04/21 07:13:05;;;;;;;1.87;1.37;;;8.20;98.00;;;;;;5070411;28;20469;-71
2021/04/21 07:15:34;;;;;;;2.27;2.03;;;8.40;98.00;;;;;;5071146;28;20454;-71
2021/04/21 07:18:01;;;;;;;1.90;1.90;;;8.50;98.00;;;;;;5069670;28;20564;-70
2021/04/21 07:20:28;;;;;;;1.70;1.20;;;8.70;98.00;;;;;;5072526;28;20741;-70
2021/04/21 07:22:56;;;;;;;2.27;1.40;;;8.70;98.00;;;;;;5069573;28;20510;-71
2021/04/21 07:25:24;;;;;;;2.80;1.97;;;8.80;98.00;;;;;;5072266;28;21068;-70
2021/04/21 07:27:55;;;;;;;2.10;1.97;;;9.10;98.00;;;;;;5069274;28;20461;-70
2021/04/21 07:30:27;;;;;;;1.90;1.40;;;9.20;98.00;;;;;;5072114;28;20451;-70
2021/04/21 07:32:54;;;;;;;1.97;1.80;;;9.50;98.00;;;;;;5070082;28;21059;-71
2021/04/21 07:35:23;;;;;;;4.10;1.73;;;9.60;98.00;;;;;;5072007;28;20965;-71
2021/04/21 07:37:51;;;;;;;5.97;2.47;;;9.70;98.00;;;;;;5068426;28;20507;-72
2021/04/21 07:40:37;;;;;;;4.07;3.00;;;9.90;98.00;;;;;;5071548;28;20464;-70
2021/04/21 07:43:11;;;;;;;2.37;2.20;;;10.40;98.00;;;;;;5068282;28;20484;-71
2021/04/21 07:46:02;;;;;;;2.53;2.37;;;11.40;98.00;;;;;;5071810;28;20463;-77
2021/04/21 07:48:48;;;;;;;2.13;1.97;;;12.50;98.00;;;;;;5048983;28;20466;-73
2021/04/21 07:51:47;;;;;;;2.50;1.87;;;13.40;96.90;;;;;;5071529;28;20465;-72
2021/04/21 07:54:28;;;;;;;2.07;1.97;;;14.10;93.80;;;;;;5066782;28;20454;-73
2021/04/21 07:57:10;;;;;;;3.10;2.17;;;14.30;91.10;;;;;;5070490;28;20457;-72
2021/04/21 07:59:47;;;;;;;2.13;1.80;;;14.30;90.80;;;;;;5067715;28;21040;-73
2021/04/21 08:02:21;;;;;;;2.40;1.70;;;14.10;90.50;;;;;;5070436;28;20458;-73
2021/04/21 08:04:54;;;;;;;2.57;2.10;;;13.90;92.00;;;;;;5068785;28;20517;-73
2021/04/21 08:07:38;;;;;;;1.63;1.53;;;13.70;92.50;;;;;;5067753;28;20464;-74
2021/04/21 08:10:08;;;;;;;4.90;2.67;;;13.70;91.50;;;;;;5058156;28;20524;-73
2021/04/21 08:12:40;;;;;;;2.13;2.00;;;13.60;92.70;;;;;;5065709;28;20463;-73
2021/04/21 08:15:11;;;;;;;1.60;1.47;;;13.70;91.90;;;;;;5051389;28;20467;-73
2021/04/21 08:17:55;;;;;;;4.33;1.93;;;13.90;92.30;;;;;;5049350;28;20454;-72
2021/04/21 08:20:30;;;;;;;1.87;1.77;;;13.70;91.20;;;;;;5049846;28;20496;-74
2021/04/21 08:23:01;;;;;;;2.47;1.93;;;13.50;91.60;;;;;;5047852;28;20822;-73
2021/04/21 08:25:29;;;;;;;4.03;2.70;;;13.40;92.00;;;;;;5050976;28;20489;-73
2021/04/21 08:27:59;;;;;;;5.27;2.30;;;13.50;93.20;;;;;;5048140;28;20457;-74
2021/04/21 08:30:29;;;;;;;7.37;2.60;;;13.60;92.10;;;;;;5051250;28;20513;-73
2021/04/21 08:32:55;;;;;;;5.63;2.53;;;13.90;93.10;;;;;;5048055;28;20455;-74
2021/04/21 08:35:22;;;;;;;3.67;1.80;;;14.00;92.20;;;;;;5051101;28;20462;-73
2021/04/21 08:37:49;;;;;;;2.53;1.63;;;14.20;90.20;;;;;;5048162;28;20453;-74
2021/04/21 08:40:19;;;;;;;2.67;1.90;;;14.40;90.30;;;;;;5051207;28;20527;-72
2021/04/21 08:42:48;;;;;;;2.00;1.60;;;14.50;90.50;;;;;;5048399;28;20481;-73
2021/04/21 08:45:18;;;;;;;3.13;1.67;;;14.70;90.20;;;;;;5050962;28;20484;-73
2021/04/21 08:47:49;;;;;;;2.73;1.90;;;15.00;89.80;;;;;;5047920;28;20984;-74
2021/04/21 08:50:16;;;;;;;2.00;1.90;;;15.20;87.40;;;;;;5051030;28;20464;-74
2021/04/21 08:52:48;;;;;;;3.53;2.00;;;15.20;87.00;;;;;;5048263;28;20541;-72
2021/04/21 08:55:17;;;;;;;2.03;1.50;;;15.30;86.10;;;;;;5051104;28;20491;-74
2021/04/21 08:57:50;;;;;;;3.40;1.87;;;15.20;85.70;;;;;;5047939;28;20470;-74
2021/04/21 09:00:19;;;;;;;2.70;1.93;;;15.10;85.90;;;;;;5050540;28;20472;-74
2021/04/21 09:02:50;;;;;;;4.40;2.33;;;15.20;84.30;;;;;;5047973;28;20490;-74
2021/04/21 09:05:21;;;;;;;2.13;1.90;;;15.30;84.80;;;;;;5050225;28;20484;-74
2021/04/21 09:07:51;;;;;;;4.23;2.87;;;15.40;84.40;;;;;;5048401;28;20487;-75
2021/04/21 09:10:19;;;;;;;2.53;1.83;;;15.60;83.90;;;;;;5059064;28;20463;-74
2021/04/21 09:12:48;;;;;;;2.00;1.90;;;15.80;81.90;;;;;;5074145;28;20838;-74
2021/04/21 09:15:17;;;;;;;3.10;2.10;;;15.80;82.30;;;;;;5075503;28;20464;-69
2021/04/21 09:17:46;;;;;;;2.57;1.70;;;16.00;82.70;;;;;;5073878;28;21008;-73
2021/04/21 09:20:15;;;;;;;2.47;1.60;;;16.20;81.50;;;;;;5076844;28;20508;-73
2021/04/21 09:23:04;;;;;;;2.37;2.00;;;16.50;81.90;;;;;;5076950;28;20457;-71
2021/04/21 09:25:37;;;;;;;1.63;1.57;;;16.80;77.40;;;;;;5077622;28;20486;-72
2021/04/21 09:28:05;;;;;;;1.70;1.47;;;16.90;79.60;;;;;;5074662;28;20967;-73
2021/04/21 09:30:35;;;;;;;2.43;1.40;;;16.80;76.80;;;;;;5077440;28;20464;-71
2021/04/21 09:33:02;;;;;;;1.87;1.57;;;16.80;78.20;;;;;;5074449;28;20598;-73
2021/04/21 09:35:34;;;;;;;5.03;2.00;;;16.90;79.20;;;;;;5077336;28;20464;-72
2021/04/21 09:38:05;;;;;;;6.70;2.20;;;17.00;76.00;;;;;;5073843;28;20479;-69
2021/04/21 09:40:41;;;;;;;2.13;1.57;;;17.20;76.00;;;;;;5075735;28;20465;-68
2021/04/21 09:43:09;;;;;;;3.87;2.90;;;17.20;76.60;;;;;;5074403;28;20475;-69
2021/04/21 09:45:38;;;;;;;2.33;1.40;;;17.20;75.60;;;;;;5076996;28;20488;-70
2021/04/21 09:48:17;;;;;;;1.97;1.53;;;17.30;73.70;;;;;;5074422;28;20456;-71
2021/04/21 09:50:54;;;;;;;1.90;1.53;;;17.40;73.10;;;;;;5077201;28;20463;-70
2021/04/21 09:53:30;;;;;;;2.50;1.83;;;17.40;72.20;;;;;;5074432;28;20501;-72
2021/04/21 09:56:04;;;;;;;2.80;1.53;;;17.40;72.90;;;;;;5077078;28;20463;-73
2021/04/21 09:58:31;;;;;;;1.97;1.73;;;17.50;72.90;;;;;;5073846;28;20474;-72
2021/04/21 10:00:58;;;;;;;2.43;1.73;;;17.60;71.80;;;;;;5076723;28;20479;-73
2021/04/21 10:03:25;;;;;;;2.80;1.80;;;17.80;70.30;;;;;;5074224;28;20459;-71
2021/04/21 10:05:52;;;;;;;1.50;1.40;;;18.00;71.90;;;;;;5076936;28;20460;-74
2021/04/21 10:08:22;;;;;;;1.80;1.67;;;18.10;68.70;;;;;;5073929;28;20813;-73
2021/04/21 10:11:00;;;;;;;2.00;1.63;;;18.30;70.00;;;;;;5076774;28;21247;-73
2021/04/21 10:13:39;;;;;;;3.63;1.70;;;18.70;70.40;;;;;;5074036;28;20492;-73
2021/04/21 10:16:07;;;;;;;2.40;1.83;;;18.90;67.40;;;;;;5076823;28;20452;-73
2021/04/21 10:18:34;;;;;;;2.27;1.73;;;18.80;66.50;;;;;;5073685;28;20801;-73
2021/04/21 10:21:01;;;;;;;3.13;2.03;;;19.00;67.80;;;;;;5075157;28;20467;-73
2021/04/21 10:23:29;;;;;;;2.37;1.87;;;19.10;68.90;;;;;;5070363;28;20465;-73
2021/04/21 10:26:01;;;;;;;2.43;2.00;;;19.30;66.90;;;;;;5073874;28;20464;-72
2021/04/21 10:28:28;;;;;;;2.80;1.83;;;19.40;67.00;;;;;;5070606;28;20789;-72
2021/04/21 10:30:57;;;;;;;3.07;2.10;;;19.50;68.10;;;;;;5073673;28;20460;-73
2021/04/21 10:33:26;;;;;;;4.70;1.60;;;19.30;67.10;;;;;;5070763;28;20452;-73
2021/04/21 10:35:53;;;;;;;4.13;2.17;;;18.90;66.70;;;;;;5073214;28;20481;-72
2021/04/21 10:38:22;;;;;;;3.10;1.60;;;18.70;66.90;;;;;;5069770;28;20974;-73
2021/04/21 10:40:49;;;;;;;4.43;2.00;;;18.60;68.40;;;;;;5073179;28;20456;-72
2021/04/21 10:43:39;;;;;;;5.27;2.50;;;18.70;70.60;;;;;;5070778;28;20465;-72
2021/04/21 10:46:15;;;;;;;3.93;2.37;;;19.00;68.30;;;;;;5073265;28;20468;-72
2021/04/21 10:48:44;;;;;;;3.13;2.03;;;19.20;67.50;;;;;;5068528;28;20531;-73
2021/04/21 10:51:40;;;;;;;3.20;2.20;;;19.20;69.30;;;;;;5073316;28;20845;-72
2021/04/21 10:54:08;;;;;;;3.20;1.87;;;19.00;66.80;;;;;;5046186;28;21020;-72
2021/04/21 10:56:37;;;;;;;2.03;1.80;;;18.80;68.00;;;;;;5072757;28;20462;-73
2021/04/21 10:59:05;;;;;;;2.17;1.80;;;18.50;69.70;;;;;;5070041;28;20469;-72
2021/04/21 11:01:35;;;;;;;2.20;1.70;;;18.40;70.10;;;;;;5072869;28;20449;-73
2021/04/21 11:04:03;;;;;;;2.17;1.60;;;18.30;70.10;;;;;;5070815;28;20481;-73
2021/04/21 11:06:50;;;;;;;3.43;1.80;;;18.20;70.20;;;;;;5072680;28;20457;-73
2021/04/21 11:09:17;;;;;;;2.20;1.53;;;18.00;67.60;;;;;;5064974;28;20460;-72
2021/04/21 11:11:47;;;;;;;1.50;1.40;;;17.80;71.70;;;;;;5072544;28;20460;-72
2021/04/21 11:14:16;;;;;;;2.93;1.60;;;17.80;71.70;;;;;;5069998;28;20483;-72
2021/04/21 11:16:44;;;;;;;1.40;1.33;;;17.80;68.50;;;;;;5072256;28;20463;-72
2021/04/21 11:19:30;;;;;;;2.33;2.03;;;17.50;66.00;;;;;;5069489;28;20453;-70
2021/04/21 11:22:27;;;;;;;2.60;2.17;;;17.80;68.30;;;;;;5072289;28;20541;-70
2021/04/21 11:25:21;;;;;;;2.53;1.83;;;18.50;66.70;;;;;;5066938;28;20477;-72
2021/04/21 11:27:48;;;;;;;1.60;1.37;;;19.20;65.70;;;;;;5072050;28;20967;-71
2021/04/21 11:30:51;;;;;;;1.70;1.53;;;19.10;67.80;;;;;;5070052;28;20919;-71
2021/04/21 11:33:58;;;;;;;2.50;1.90;;;18.90;64.20;;;;;;5051233;28;20909;-69
2021/04/21 11:36:47;;;;;;;1.90;1.77;;;19.20;63.90;;;;;;5072242;28;20460;-68
2021/04/21 11:39:14;;;;;;;3.40;1.83;;;19.70;67.90;;;;;;5069576;28;20865;-68
2021/04/21 11:41:46;;;;;;;2.27;1.50;;;20.30;63.60;;;;;;5072122;28;21057;-70
2021/04/21 11:44:50;;;;;;;2.53;1.87;;;20.80;64.30;;;;;;5069540;28;20831;-69
2021/04/21 11:47:29;;;;;;;1.60;1.40;;;20.80;66.60;;;;;;5071569;28;20465;-70
2021/04/21 11:50:14;;;;;;;2.57;2.10;;;21.10;67.40;;;;;;5068091;28;20455;-69
2021/04/21 11:52:57;;;;;;;2.00;1.70;;;21.00;61.60;;;;;;5071747;28;20475;-69
2021/04/21 11:55:33;;;;;;;3.60;1.97;;;20.60;63.80;;;;;;5071173;28;20510;-67
2021/04/21 11:58:07;;;;;;;2.13;1.57;;;20.00;64.50;;;;;;5070157;28;20452;-67
2021/04/21 12:00:37;;;;;;;1.70;1.67;;;19.90;65.00;;;;;;5071710;28;20464;-67
2021/04/21 12:03:05;;;;;;;2.50;1.70;;;19.90;65.40;;;;;;5068992;28;20525;-68
2021/04/21 12:05:34;;;;;;;2.60;1.93;;;20.10;65.00;;;;;;5071547;28;20518;-68
2021/04/21 12:08:03;;;;;;;6.27;2.20;;;20.10;64.30;;;;;;5069823;28;20468;-68
2021/04/21 12:10:33;;;;;;;2.97;2.37;;;20.10;65.80;;;;;;5071595;28;20873;-67
2021/04/21 12:13:24;;;;;;;2.60;2.13;;;20.50;65.80;;;;;;5070544;28;20456;-68
2021/04/21 12:15:54;;;;;;;2.17;2.00;;;20.90;64.10;;;;;;5070082;28;20457;-67
2021/04/21 12:18:27;;;;;;;1.83;1.50;;;21.20;63.20;;;;;;5068531;28;20522;-70
2021/04/21 12:20:54;;;;;;;3.50;3.27;;;21.30;62.20;;;;;;5071351;28;20477;-71
2021/04/21 12:23:30;;;;;;;1.80;1.57;;;21.20;61.30;;;;;;5068400;28;20457;-69
2021/04/21 12:25:57;;;;;;;6.70;1.63;;;21.30;63.30;;;;;;5071175;28;20491;-68
2021/04/21 12:28:25;;;;;;;3.30;2.27;;;21.40;62.60;;;;;;5068186;28;21157;-71
2021/04/21 12:30:53;;;;;;;3.33;1.80;;;21.40;63.80;;;;;;5071032;28;20552;-70
2021/04/21 12:33:22;;;;;;;4.13;2.70;;;21.40;64.10;;;;;;5067675;28;20872;-70
2021/04/21 12:35:53;;;;;;;1.90;1.50;;;21.60;63.50;;;;;;5071187;28;20823;-67
2021/04/21 12:38:30;;;;;;;1.70;1.50;;;21.70;62.70;;;;;;5068688;28;20448;-68
2021/04/21 12:40:58;;;;;;;2.33;2.10;;;22.00;62.30;;;;;;5071555;28;20460;-67
2021/04/21 12:43:31;;;;;;;6.10;2.40;;;22.20;62.20;;;;;;5068872;28;20457;-67
2021/04/21 12:46:12;;;;;;;2.07;1.60;;;22.20;62.50;;;;;;5070219;28;21056;-67
2021/04/21 12:48:52;;;;;;;2.73;2.07;;;22.40;62.50;;;;;;5068822;28;20876;-68
2021/04/21 12:51:21;;;;;;;2.43;2.23;;;22.50;60.50;;;;;;5071431;28;20523;-67
2021/04/21 12:53:49;;;;;;;2.30;1.67;;;22.80;59.60;;;;;;5068401;28;20521;-67
2021/04/21 12:56:16;;;;;;;1.80;1.70;;;22.80;60.60;;;;;;5071374;28;20456;-67
2021/04/21 12:58:46;;;;;;;2.60;1.80;;;22.90;57.50;;;;;;5068244;28;20461;-67
2021/04/21 13:01:16;;;;;;;2.93;1.83;;;23.00;57.30;;;;;;5071318;28;20468;-67
2021/04/21 13:04:00;;;;;;;3.00;1.90;;;22.80;56.30;;;;;;5068466;28;20855;-67
2021/04/21 13:06:44;;;;;;;3.40;2.13;;;22.50;58.20;;;;;;5071170;28;20460;-67
2021/04/21 13:09:13;;;;;;;2.10;1.90;;;22.30;57.60;;;;;;5067320;28;20453;-67
2021/04/21 13:11:43;;;;;;;3.00;2.00;;;22.40;58.70;;;;;;5070890;28;20468;-67
2021/04/21 13:14:12;;;;;;;4.67;2.50;;;22.70;57.70;;;;;;5068348;28;20939;-68
2021/04/21 13:16:40;;;;;;;2.90;1.57;;;22.90;57.70;;;;;;5070979;28;21004;-67
2021/04/21 13:19:25;;;;;;;2.00;1.50;;;23.10;56.70;;;;;;5068399;28;20463;-67
2021/04/21 13:21:59;;;;;;;3.80;2.10;;;22.80;56.00;;;;;;5070952;28;20460;-67
2021/04/21 13:24:29;;;;;;;2.60;1.80;;;22.30;55.40;;;;;;5067981;28;20480;-68
2021/04/21 13:26:57;;;;;;;2.27;1.60;;;22.10;55.70;;;;;;5071128;28;20850;-67
2021/04/21 13:29:32;;;;;;;1.80;1.63;;;21.70;58.00;;;;;;5067996;28;20935;-68
2021/04/21 13:32:09;;;;;;;1.67;1.40;;;21.50;57.70;;;;;;5069917;28;20457;-68